Time;durP1;ratioP1;P1;durP2;ratioP2;P2;SDS_P1;SDS_P2;PMS_P1;PMS_P2;Temp;Humidity;BMP_temperature;BMP_pressure;BME280_temperature;BME280_humidity;BME280_pressure;Samples;Min_cycle;Max_cycle;Signal;HPM_P1;HPM_P2
2023/10/25 00:01:17;;;;;;;1.70;1.60;;;;;;;;;;5035275;28;20226;-91
2023/10/25 00:03:44;;;;;;;2.42;1.65;;;;;;;;;;5034834;28;20293;-90
2023/10/25 00:06:12;;;;;;;1.58;1.48;;;;;;;;;;5035371;28;20294;-91
2023/10/25 00:08:40;;;;;;;1.80;1.70;;;;;;;;;;5026557;28;20203;-91
2023/10/25 00:11:08;;;;;;;1.73;1.63;;;;;;;;;;5034515;28;20322;-91
2023/10/25 00:13:37;;;;;;;1.73;1.63;;;;;;;;;;5034770;28;20238;-90
2023/10/25 00:16:05;;;;;;;1.60;1.50;;;;;;;;;;5034879;28;20252;-91
2023/10/25 00:18:34;;;;;;;1.90;1.80;;;;;;;;;;5034631;28;20216;-91
2023/10/25 00:21:03;;;;;;;1.70;1.60;;;;;;;;;;5034475;28;20254;-91
2023/10/25 00:23:30;;;;;;;1.67;1.58;;;;;;;;;;5034640;28;20201;-91
2023/10/25 00:25:58;;;;;;;1.88;1.77;;;;;;;;;;5031133;28;20241;-92
2023/10/25 00:28:25;;;;;;;1.75;1.65;;;;;;;;;;5035043;28;20233;-92
2023/10/25 00:30:53;;;;;;;3.13;2.15;;;;;;;;;;5033747;28;20679;-91
2023/10/25 00:33:20;;;;;;;2.55;2.35;;;;;;;;;;5034747;28;20201;-90
2023/10/25 00:35:50;;;;;;;2.33;2.13;;;;;;;;;;5034550;28;20236;-90
2023/10/25 00:38:18;;;;;;;2.70;1.83;;;;;;;;;;5025894;28;20198;-91
2023/10/25 00:40:46;;;;;;;2.10;2.00;;;;;;;;;;5033641;28;20286;-91
2023/10/25 00:43:18;;;;;;;2.83;2.45;;;;;;;;;;5026404;28;20210;-91
2023/10/25 00:46:10;;;;;;;1.85;1.75;;;;;;;;;;5031174;28;20770;-91
2023/10/25 00:48:38;;;;;;;1.85;1.75;;;;;;;;;;5034097;28;20206;-90
2023/10/25 00:51:07;;;;;;;2.88;2.67;;;;;;;;;;5029937;28;20337;-91
2023/10/25 00:53:35;;;;;;;2.17;2.08;;;;;;;;;;5039156;28;20203;-91
2023/10/25 00:56:03;;;;;;;2.35;2.15;;;;;;;;;;5052088;28;20297;-89
2023/10/25 00:58:31;;;;;;;2.78;2.47;;;;;;;;;;5060968;28;20193;-90
2023/10/25 01:00:59;;;;;;;3.08;2.78;;;;;;;;;;5059455;28;20264;-90
2023/10/25 01:03:27;;;;;;;2.13;2.03;;;;;;;;;;5039907;28;20274;-91
2023/10/25 01:05:54;;;;;;;2.80;2.60;;;;;;;;;;5038942;28;20735;-92
2023/10/25 01:08:24;;;;;;;2.95;2.65;;;;;;;;;;5029899;28;20202;-90
2023/10/25 01:10:53;;;;;;;2.42;2.20;;;;;;;;;;5038032;28;20230;-88
2023/10/25 01:13:21;;;;;;;2.75;2.55;;;;;;;;;;5034700;28;20210;-92
2023/10/25 01:15:49;;;;;;;2.15;1.70;;;;;;;;;;5038913;28;20195;-92
2023/10/25 01:18:17;;;;;;;1.92;1.83;;;;;;;;;;5035915;28;20290;-90
2023/10/25 01:20:45;;;;;;;2.28;2.10;;;;;;;;;;5037935;28;20242;-91
2023/10/25 01:23:14;;;;;;;2.10;2.00;;;;;;;;;;5029877;28;20289;-91
2023/10/25 01:25:43;;;;;;;2.75;2.55;;;;;;;;;;5038090;28;21401;-89
2023/10/25 01:28:11;;;;;;;3.10;2.85;;;;;;;;;;5038273;28;20796;-91
2023/10/25 01:30:39;;;;;;;2.30;1.70;;;;;;;;;;5033840;28;20232;-91
2023/10/25 01:33:07;;;;;;;2.25;2.15;;;;;;;;;;5033504;28;20595;-90
2023/10/25 01:35:36;;;;;;;1.40;1.30;;;;;;;;;;5037971;28;20222;-90
2023/10/25 01:38:03;;;;;;;2.10;2.00;;;;;;;;;;5029604;28;20679;-91
2023/10/25 01:40:32;;;;;;;2.08;1.90;;;;;;;;;;5037581;28;20305;-92
2023/10/25 01:43:00;;;;;;;2.35;2.15;;;;;;;;;;5037401;28;20226;-90
2023/10/25 01:45:28;;;;;;;2.03;1.90;;;;;;;;;;5037802;28;20289;-90
2023/10/25 01:47:55;;;;;;;3.22;2.28;;;;;;;;;;5037096;28;20589;-91
2023/10/25 01:50:23;;;;;;;2.28;1.98;;;;;;;;;;5037608;28;20202;-91
2023/10/25 01:52:50;;;;;;;2.00;1.90;;;;;;;;;;5033761;28;20231;-91
2023/10/25 01:55:18;;;;;;;2.28;2.08;;;;;;;;;;5025449;28;20202;-90
2023/10/25 01:57:47;;;;;;;2.00;1.90;;;;;;;;;;5037711;28;20313;-91
2023/10/25 02:00:16;;;;;;;3.22;2.30;;;;;;;;;;5032873;28;20199;-90
2023/10/25 02:02:44;;;;;;;2.28;2.05;;;;;;;;;;5037239;28;20206;-91
2023/10/25 02:05:11;;;;;;;1.75;1.65;;;;;;;;;;5036055;28;20294;-90
2023/10/25 02:07:39;;;;;;;2.40;2.20;;;;;;;;;;5030420;28;20211;-91
2023/10/25 02:10:08;;;;;;;1.80;1.70;;;;;;;;;;5031595;28;20677;-90
2023/10/25 02:12:35;;;;;;;1.98;1.88;;;;;;;;;;5041831;28;20233;-90
2023/10/25 02:15:06;;;;;;;1.70;1.60;;;;;;;;;;5046558;28;20226;-91
2023/10/25 02:17:33;;;;;;;1.90;1.80;;;;;;;;;;5037895;28;20285;-90
2023/10/25 02:20:01;;;;;;;2.15;1.90;;;;;;;;;;5035885;28;20561;-91
2023/10/25 02:24:57;;;;;;;2.50;2.30;;;;;;;;;;5012939;28;20211;-87
2023/10/25 02:27:24;;;;;;;2.67;2.47;;;;;;;;;;5014245;28;20195;-87
2023/10/25 02:29:52;;;;;;;2.63;2.42;;;;;;;;;;5014054;28;20294;-87
2023/10/25 02:32:20;;;;;;;2.72;2.55;;;;;;;;;;4998657;28;20683;-88
2023/10/25 02:34:48;;;;;;;2.53;2.33;;;;;;;;;;5009996;28;20209;-87
2023/10/25 02:37:15;;;;;;;1.80;1.70;;;;;;;;;;5005549;28;20290;-87
2023/10/25 02:39:43;;;;;;;2.00;1.90;;;;;;;;;;5013983;28;20330;-88
2023/10/25 02:42:12;;;;;;;2.00;1.90;;;;;;;;;;5013793;28;20207;-87
2023/10/25 02:44:39;;;;;;;1.83;1.73;;;;;;;;;;5013888;28;20203;-88
2023/10/25 02:47:07;;;;;;;1.88;1.77;;;;;;;;;;5013768;28;20301;-87
2023/10/25 02:49:36;;;;;;;2.50;2.30;;;;;;;;;;5008307;28;20211;-87
2023/10/25 02:52:04;;;;;;;2.13;1.92;;;;;;;;;;5011420;28;20286;-87
2023/10/25 02:54:31;;;;;;;2.90;2.70;;;;;;;;;;5013846;28;20203;-87
2023/10/25 02:56:59;;;;;;;2.55;2.35;;;;;;;;;;5013981;28;20210;-88
2023/10/25 02:59:26;;;;;;;3.25;2.95;;;;;;;;;;5005811;28;20298;-87
2023/10/25 03:01:54;;;;;;;2.53;2.33;;;;;;;;;;5013032;28;20586;-87
2023/10/25 03:04:22;;;;;;;2.45;2.25;;;;;;;;;;5013256;28;20227;-87
2023/10/25 03:06:50;;;;;;;3.55;3.28;;;;;;;;;;5013200;28;20210;-88
2023/10/25 03:09:18;;;;;;;3.78;3.47;;;;;;;;;;5013909;28;20290;-88
2023/10/25 03:11:45;;;;;;;3.30;3.00;;;;;;;;;;5013130;28;20205;-87
2023/10/25 03:14:13;;;;;;;4.10;3.80;;;;;;;;;;5013001;28;20962;-87
2023/10/25 03:16:40;;;;;;;3.63;3.33;;;;;;;;;;5005111;28;20203;-87
2023/10/25 03:19:08;;;;;;;2.83;2.63;;;;;;;;;;5009268;28;20674;-88
2023/10/25 03:21:35;;;;;;;3.05;2.78;;;;;;;;;;5008523;28;20203;-87
2023/10/25 03:24:07;;;;;;;2.72;2.53;;;;;;;;;;5005202;28;20266;-87
2023/10/25 03:26:35;;;;;;;3.58;3.28;;;;;;;;;;5013415;28;20211;-87
2023/10/25 03:29:02;;;;;;;2.83;2.63;;;;;;;;;;5013004;28;20213;-87
2023/10/25 03:31:30;;;;;;;2.80;2.60;;;;;;;;;;5008555;28;20282;-87
2023/10/25 03:33:57;;;;;;;2.90;2.63;;;;;;;;;;5008598;28;20607;-88
2023/10/25 03:36:25;;;;;;;3.38;3.05;;;;;;;;;;5012845;28;20206;-88
2023/10/25 03:38:52;;;;;;;3.60;3.00;;;;;;;;;;5012273;28;20297;-87
2023/10/25 03:41:21;;;;;;;4.30;2.75;;;;;;;;;;4993317;28;20317;-87
2023/10/25 03:43:49;;;;;;;3.00;2.80;;;;;;;;;;5008879;28;20227;-86
2023/10/25 03:46:16;;;;;;;2.75;2.55;;;;;;;;;;5004797;28;20669;-87
2023/10/25 03:51:19;;;;;;;3.30;3.03;;;;;;;;;;4998141;28;20588;-86
2023/10/25 03:53:46;;;;;;;2.97;2.78;;;;;;;;;;4993874;28;20772;-87
2023/10/25 03:56:14;;;;;;;4.30;3.20;;;;;;;;;;4994593;28;20753;-87
2023/10/25 03:58:42;;;;;;;3.40;3.20;;;;;;;;;;5000282;28;20291;-87
2023/10/25 04:01:10;;;;;;;3.28;2.97;;;;;;;;;;5004858;28;20218;-87
2023/10/25 04:03:38;;;;;;;6.07;3.67;;;;;;;;;;5012314;28;20222;-87
2023/10/25 04:06:06;;;;;;;3.13;2.88;;;;;;;;;;5002881;28;20206;-87
2023/10/25 04:08:33;;;;;;;2.58;2.38;;;;;;;;;;5006293;28;20195;-87
2023/10/25 04:11:01;;;;;;;2.92;2.55;;;;;;;;;;5007427;28;20700;-87
2023/10/25 04:13:29;;;;;;;3.13;2.83;;;;;;;;;;5005311;28;20595;-88
2023/10/25 04:15:59;;;;;;;2.92;2.72;;;;;;;;;;5012022;28;20278;-87
2023/10/25 04:18:28;;;;;;;2.90;2.70;;;;;;;;;;5004935;28;20305;-87
2023/10/25 04:20:57;;;;;;;3.75;3.45;;;;;;;;;;5007877;28;20201;-88
2023/10/25 04:23:27;;;;;;;4.30;3.90;;;;;;;;;;5011876;28;20222;-87
2023/10/25 04:26:03;;;;;;;3.85;3.55;;;;;;;;;;4996894;28;20206;-87
2023/10/25 04:28:30;;;;;;;4.22;3.85;;;;;;;;;;4993026;28;20203;-87
2023/10/25 04:30:59;;;;;;;4.30;3.90;;;;;;;;;;5009957;28;20199;-87
2023/10/25 04:33:27;;;;;;;3.63;3.10;;;;;;;;;;5008307;28;20258;-87
2023/10/25 04:35:55;;;;;;;3.38;3.08;;;;;;;;;;5008501;28;20230;-87
2023/10/25 04:38:24;;;;;;;3.60;3.28;;;;;;;;;;5000477;28;20665;-88
2023/10/25 04:40:52;;;;;;;3.80;3.42;;;;;;;;;;5012433;28;20257;-88
2023/10/25 04:43:19;;;;;;;3.70;3.30;;;;;;;;;;4999921;28;20305;-87
2023/10/25 04:45:48;;;;;;;3.88;3.35;;;;;;;;;;4996861;28;20283;-87
2023/10/25 04:48:17;;;;;;;3.53;3.22;;;;;;;;;;4995085;28;20226;-87
2023/10/25 04:50:46;;;;;;;3.33;3.03;;;;;;;;;;5002772;28;20721;-87
2023/10/25 04:53:13;;;;;;;3.30;3.10;;;;;;;;;;5011651;28;20326;-86
2023/10/25 04:55:46;;;;;;;3.15;2.75;;;;;;;;;;4997653;28;20195;-86
2023/10/25 04:58:14;;;;;;;3.47;3.13;;;;;;;;;;4999123;28;20203;-87
2023/10/25 05:00:41;;;;;;;3.35;3.05;;;;;;;;;;4999860;28;20206;-88
2023/10/25 05:03:11;;;;;;;3.78;3.47;;;;;;;;;;5011667;28;20306;-87
2023/10/25 05:05:40;;;;;;;3.42;3.13;;;;;;;;;;5011957;28;20202;-87
2023/10/25 05:08:09;;;;;;;3.05;2.75;;;;;;;;;;4994003;28;20208;-88
2023/10/25 05:10:37;;;;;;;3.00;2.80;;;;;;;;;;4997844;28;20286;-87
2023/10/25 05:13:06;;;;;;;3.05;2.85;;;;;;;;;;5011600;28;20711;-87
2023/10/25 05:15:35;;;;;;;3.88;3.58;;;;;;;;;;4998229;28;20234;-87
2023/10/25 05:18:04;;;;;;;2.90;2.70;;;;;;;;;;5001285;28;20203;-87
2023/10/25 05:20:32;;;;;;;3.10;2.90;;;;;;;;;;4998918;28;20196;-87
2023/10/25 05:23:04;;;;;;;4.28;3.35;;;;;;;;;;5011031;28;20230;-88
2023/10/25 05:25:32;;;;;;;3.92;3.63;;;;;;;;;;5000029;28;20225;-87
2023/10/25 05:28:01;;;;;;;3.63;3.33;;;;;;;;;;4994168;28;20661;-88
2023/10/25 05:30:29;;;;;;;3.03;2.72;;;;;;;;;;4992003;28;20238;-88
2023/10/25 05:33:02;;;;;;;3.45;3.15;;;;;;;;;;4991360;28;20219;-87
2023/10/25 05:35:30;;;;;;;3.58;3.28;;;;;;;;;;4996509;28;20262;-87
2023/10/25 05:38:02;;;;;;;3.35;3.05;;;;;;;;;;5008518;28;20735;-87
2023/10/25 05:40:31;;;;;;;2.95;2.75;;;;;;;;;;5014826;28;20202;-87
2023/10/25 05:42:59;;;;;;;2.58;2.22;;;;;;;;;;5002971;28;20299;-87
2023/10/25 05:45:26;;;;;;;2.55;2.35;;;;;;;;;;4995225;28;20202;-87
2023/10/25 05:47:55;;;;;;;2.08;1.98;;;;;;;;;;4995418;28;20208;-87
2023/10/25 05:50:23;;;;;;;2.42;2.22;;;;;;;;;;5001982;28;20203;-87
2023/10/25 05:52:51;;;;;;;1.88;1.77;;;;;;;;;;5002824;28;20221;-87
2023/10/25 05:55:21;;;;;;;1.90;1.63;;;;;;;;;;4998497;28;20227;-88
2023/10/25 05:57:50;;;;;;;1.88;1.50;;;;;;;;;;4995675;28;20204;-87
2023/10/25 06:00:19;;;;;;;1.60;1.50;;;;;;;;;;5002293;28;20649;-87
2023/10/25 06:02:46;;;;;;;3.42;3.13;;;;;;;;;;5011385;28;20689;-87
2023/10/25 06:05:15;;;;;;;3.55;3.25;;;;;;;;;;5002167;28;20217;-88
2023/10/25 06:07:43;;;;;;;4.07;3.58;;;;;;;;;;5003176;28;20203;-87
2023/10/25 06:10:12;;;;;;;4.28;3.88;;;;;;;;;;5007860;28;20221;-88
2023/10/25 06:12:42;;;;;;;3.58;3.28;;;;;;;;;;5008821;28;20877;-87
2023/10/25 06:15:11;;;;;;;3.92;3.55;;;;;;;;;;5014358;28;20704;-87
2023/10/25 06:17:38;;;;;;;3.42;3.13;;;;;;;;;;5008857;28;20253;-88
2023/10/25 06:20:07;;;;;;;4.20;3.90;;;;;;;;;;5011988;28;20209;-88
2023/10/25 06:22:35;;;;;;;4.35;3.85;;;;;;;;;;5014036;28;20235;-87
2023/10/25 06:25:04;;;;;;;4.75;4.35;;;;;;;;;;5014206;28;20202;-88
2023/10/25 06:27:32;;;;;;;3.33;3.03;;;;;;;;;;5006250;28;20211;-88
2023/10/25 06:30:01;;;;;;;4.32;3.90;;;;;;;;;;5014026;28;20560;-87
2023/10/25 06:32:29;;;;;;;4.55;3.97;;;;;;;;;;5014243;28;20231;-88
2023/10/25 06:34:56;;;;;;;4.18;3.80;;;;;;;;;;5005775;28;20230;-88
2023/10/25 06:37:25;;;;;;;4.30;3.90;;;;;;;;;;5013872;28;20736;-87
2023/10/25 06:39:53;;;;;;;4.43;4.03;;;;;;;;;;5005690;28;20207;-88
2023/10/25 06:42:21;;;;;;;5.47;3.95;;;;;;;;;;5006161;28;20313;-87
2023/10/25 06:44:50;;;;;;;4.85;4.30;;;;;;;;;;5013836;28;20235;-87
2023/10/25 06:47:20;;;;;;;4.05;3.05;;;;;;;;;;5010729;28;20203;-87
2023/10/25 06:49:49;;;;;;;3.95;3.63;;;;;;;;;;5008638;28;20203;-87
2023/10/25 06:52:17;;;;;;;4.43;4.03;;;;;;;;;;5013611;28;20221;-88
2023/10/25 06:54:46;;;;;;;4.15;3.75;;;;;;;;;;5013476;28;20227;-87
2023/10/25 06:57:15;;;;;;;4.55;4.15;;;;;;;;;;5013413;28;20202;-87
2023/10/25 06:59:43;;;;;;;4.45;3.92;;;;;;;;;;5013604;28;20698;-88
2023/10/25 07:02:27;;;;;;;5.05;4.55;;;;;;;;;;5013117;28;20570;-87
2023/10/25 07:05:02;;;;;;;3.38;3.08;;;;;;;;;;5009269;28;20751;-88
2023/10/25 07:07:32;;;;;;;3.95;3.65;;;;;;;;;;5005451;28;20213;-88
2023/10/25 07:10:00;;;;;;;3.95;3.58;;;;;;;;;;5009772;28;20274;-87
2023/10/25 07:12:27;;;;;;;4.03;3.72;;;;;;;;;;5005259;28;20845;-88
2023/10/25 07:14:55;;;;;;;3.83;3.45;;;;;;;;;;5013354;28;20310;-88
2023/10/25 07:17:27;;;;;;;4.15;3.75;;;;;;;;;;5013195;28;20578;-88
2023/10/25 07:19:54;;;;;;;3.55;3.25;;;;;;;;;;5013112;28;20222;-88
2023/10/25 07:22:22;;;;;;;3.85;3.50;;;;;;;;;;5013296;28;20223;-88
2023/10/25 07:24:49;;;;;;;4.97;4.20;;;;;;;;;;5008492;28;20687;-88
2023/10/25 07:27:17;;;;;;;3.25;2.95;;;;;;;;;;5010541;28;20234;-88
2023/10/25 07:29:44;;;;;;;4.50;4.10;;;;;;;;;;5004530;28;20293;-89
2023/10/25 07:32:12;;;;;;;4.20;3.80;;;;;;;;;;5012900;28;20206;-88
2023/10/25 07:34:41;;;;;;;4.68;4.28;;;;;;;;;;4999347;28;20757;-88
2023/10/25 07:37:08;;;;;;;4.63;3.95;;;;;;;;;;5001647;28;20643;-88
2023/10/25 07:39:36;;;;;;;3.40;3.10;;;;;;;;;;5013138;28;20203;-88
2023/10/25 07:42:04;;;;;;;4.18;3.83;;;;;;;;;;5012606;28;20210;-88
2023/10/25 07:44:31;;;;;;;4.03;3.63;;;;;;;;;;5009631;28;20221;-88
2023/10/25 07:46:59;;;;;;;3.50;3.25;;;;;;;;;;5007804;28;20578;-88
2023/10/25 07:49:26;;;;;;;4.57;4.18;;;;;;;;;;5012592;28;20234;-88
2023/10/25 07:51:55;;;;;;;5.25;4.72;;;;;;;;;;5004494;28;20217;-88
2023/10/25 07:54:23;;;;;;;6.38;4.78;;;;;;;;;;5000894;28;20644;-88
2023/10/25 07:56:50;;;;;;;5.57;3.72;;;;;;;;;;5004223;28;20222;-88
2023/10/25 07:59:18;;;;;;;5.75;4.10;;;;;;;;;;5007473;28;20290;-88
2023/10/25 08:01:45;;;;;;;5.38;4.40;;;;;;;;;;5011515;28;20589;-88
2023/10/25 08:04:13;;;;;;;4.25;3.85;;;;;;;;;;5012399;28;20253;-88
2023/10/25 08:06:41;;;;;;;4.50;4.10;;;;;;;;;;4999063;28;20290;-87
2023/10/25 08:09:09;;;;;;;4.55;4.15;;;;;;;;;;5002595;28;20233;-88
2023/10/25 08:11:37;;;;;;;4.80;4.40;;;;;;;;;;5011380;28;20195;-88
2023/10/25 08:14:05;;;;;;;5.47;4.53;;;;;;;;;;4999452;28;20255;-89
2023/10/25 08:16:38;;;;;;;4.03;3.63;;;;;;;;;;5010986;28;20233;-88
2023/10/25 08:19:06;;;;;;;3.70;3.40;;;;;;;;;;5009841;28;20210;-88
2023/10/25 08:21:35;;;;;;;4.43;3.75;;;;;;;;;;5012710;28;20659;-89
2023/10/25 08:24:02;;;;;;;3.80;3.45;;;;;;;;;;5047304;23;20313;-87
2023/10/25 08:26:34;;;;;;;4.43;3.78;;;;;;;;;;5021111;28;20286;-87
2023/10/25 08:29:02;;;;;;;7.97;4.68;;;;;;;;;;5018361;28;20218;-88
2023/10/25 08:31:30;;;;;;;4.90;4.45;;;;;;;;;;5017596;28;20229;-86
2023/10/25 08:33:57;;;;;;;5.50;5.00;;;;;;;;;;5027415;28;20661;-88
2023/10/25 08:36:25;;;;;;;6.93;4.97;;;;;;;;;;5024909;28;20760;-87
2023/10/25 08:38:53;;;;;;;5.85;5.25;;;;;;;;;;5027435;28;20229;-87
2023/10/25 08:41:21;;;;;;;4.00;3.70;;;;;;;;;;5022604;28;20619;-87
2023/10/25 08:43:50;;;;;;;3.88;3.47;;;;;;;;;;5011404;28;20286;-88
2023/10/25 08:46:18;;;;;;;4.10;3.75;;;;;;;;;;5018122;28;20274;-87
2023/10/25 08:48:45;;;;;;;3.72;3.42;;;;;;;;;;5024437;28;20250;-88
2023/10/25 08:51:14;;;;;;;4.55;4.13;;;;;;;;;;5010654;28;20209;-85
2023/10/25 08:53:43;;;;;;;3.63;3.28;;;;;;;;;;5020827;28;20290;-88
2023/10/25 08:56:10;;;;;;;4.72;3.58;;;;;;;;;;5031803;28;20308;-86
2023/10/25 08:58:38;;;;;;;4.30;3.90;;;;;;;;;;5031914;28;20213;-87
2023/10/25 09:01:07;;;;;;;4.65;4.25;;;;;;;;;;5015996;28;20205;-86
2023/10/25 09:03:44;;;;;;;7.03;4.63;;;;;;;;;;5023245;28;20198;-87
2023/10/25 09:06:23;;;;;;;5.85;4.03;;;;;;;;;;5026220;28;20628;-86
2023/10/25 09:09:02;;;;;;;3.67;3.38;;;;;;;;;;5007933;28;20219;-86
2023/10/25 09:11:40;;;;;;;6.10;4.47;;;;;;;;;;5017210;28;20194;-87
2023/10/25 09:14:09;;;;;;;3.72;3.42;;;;;;;;;;5035141;28;20198;-86
2023/10/25 09:16:40;;;;;;;4.15;3.75;;;;;;;;;;5024160;28;20258;-87
2023/10/25 09:19:08;;;;;;;3.90;3.13;;;;;;;;;;5023118;28;20576;-87
2023/10/25 09:21:35;;;;;;;3.90;3.35;;;;;;;;;;5017507;28;20649;-88
2023/10/25 09:24:07;;;;;;;4.05;3.45;;;;;;;;;;5029331;28;20721;-87
2023/10/25 09:26:39;;;;;;;5.63;3.78;;;;;;;;;;5035095;28;20198;-86
2023/10/25 09:29:09;;;;;;;3.38;3.08;;;;;;;;;;5026448;28;20230;-86
2023/10/25 09:31:38;;;;;;;4.63;3.28;;;;;;;;;;5027214;28;20262;-87
2023/10/25 09:34:09;;;;;;;4.90;4.43;;;;;;;;;;5034732;28;20209;-87
2023/10/25 09:36:37;;;;;;;3.80;3.47;;;;;;;;;;5025312;28;20575;-87
2023/10/25 09:39:05;;;;;;;3.20;2.90;;;;;;;;;;5027274;28;20211;-86
2023/10/25 09:41:39;;;;;;;4.40;4.00;;;;;;;;;;5026698;28;20198;-85
2023/10/25 09:44:19;;;;;;;3.92;3.05;;;;;;;;;;5025235;28;20685;-87
2023/10/25 09:46:48;;;;;;;4.00;3.60;;;;;;;;;;5028746;28;20206;-86
2023/10/25 09:49:18;;;;;;;3.83;3.42;;;;;;;;;;5020966;28;20223;-87
2023/10/25 09:52:05;;;;;;;4.88;4.07;;;;;;;;;;5028567;28;20207;-87
2023/10/25 09:54:34;;;;;;;3.42;3.13;;;;;;;;;;5030808;28;20182;-86
2023/10/25 09:57:04;;;;;;;4.47;3.67;;;;;;;;;;5025214;28;20294;-86
2023/10/25 09:59:32;;;;;;;4.20;3.58;;;;;;;;;;5018796;28;20612;-89
2023/10/25 10:02:05;;;;;;;3.55;3.25;;;;;;;;;;5030610;28;20217;-87
2023/10/25 10:04:44;;;;;;;4.15;3.75;;;;;;;;;;5026133;28;20294;-87
2023/10/25 10:07:21;;;;;;;4.13;3.65;;;;;;;;;;5018688;28;20731;-87
2023/10/25 10:09:55;;;;;;;4.22;3.60;;;;;;;;;;5017081;28;20267;-89
2023/10/25 10:12:23;;;;;;;3.65;3.15;;;;;;;;;;5026459;28;20202;-88
2023/10/25 10:14:52;;;;;;;7.50;4.63;;;;;;;;;;5021145;28;20715;-88
2023/10/25 10:17:21;;;;;;;3.95;3.22;;;;;;;;;;5036358;28;20230;-87
2023/10/25 10:19:50;;;;;;;3.90;3.45;;;;;;;;;;5021853;28;20202;-87
2023/10/25 10:22:19;;;;;;;3.30;3.00;;;;;;;;;;5018145;28;20293;-87
2023/10/25 10:24:48;;;;;;;4.20;3.72;;;;;;;;;;5035609;28;20655;-87
2023/10/25 10:27:17;;;;;;;4.72;2.92;;;;;;;;;;5034811;28;20202;-87
2023/10/25 10:29:46;;;;;;;4.35;3.13;;;;;;;;;;5036860;28;20569;-88
2023/10/25 10:32:14;;;;;;;3.80;3.00;;;;;;;;;;5037650;28;20300;-88
2023/10/25 10:34:48;;;;;;;3.35;3.05;;;;;;;;;;5036598;28;20301;-89
2023/10/25 10:37:17;;;;;;;3.22;3.03;;;;;;;;;;5033801;28;20318;-87
2023/10/25 10:40:16;;;;;;;3.00;2.70;;;;;;;;;;5038028;28;20227;-87
2023/10/25 10:42:44;;;;;;;2.78;2.58;;;;;;;;;;5024389;28;20206;-87
2023/10/25 10:45:15;;;;;;;6.22;3.28;;;;;;;;;;5036506;28;20664;-88
2023/10/25 10:47:44;;;;;;;2.75;2.55;;;;;;;;;;5035811;28;20601;-87
2023/10/25 10:50:15;;;;;;;2.42;2.15;;;;;;;;;;5035136;28;20285;-88
2023/10/25 10:52:44;;;;;;;2.53;2.33;;;;;;;;;;5035487;28;20206;-88
2023/10/25 10:55:16;;;;;;;2.58;2.38;;;;;;;;;;5025807;28;20294;-90
2023/10/25 10:57:44;;;;;;;2.10;2.00;;;;;;;;;;5015338;28;20231;-90
2023/10/25 11:00:16;;;;;;;3.00;1.85;;;;;;;;;;5015475;28;20625;-94
2023/10/25 11:02:47;;;;;;;2.22;1.90;;;;;;;;;;5015227;28;20207;-89
2023/10/25 11:05:19;;;;;;;1.88;1.77;;;;;;;;;;5014547;28;20326;-89
2023/10/25 11:07:48;;;;;;;1.65;1.55;;;;;;;;;;5016088;28;20588;-86
2023/10/25 11:10:16;;;;;;;1.90;1.80;;;;;;;;;;5014945;28;20203;-88
2023/10/25 11:12:44;;;;;;;2.22;2.00;;;;;;;;;;5015178;28;20696;-88
2023/10/25 11:15:13;;;;;;;3.50;1.67;;;;;;;;;;5016112;28;20226;-88
2023/10/25 11:17:41;;;;;;;4.05;1.90;;;;;;;;;;5003540;28;20278;-88
2023/10/25 11:20:10;;;;;;;2.38;2.17;;;;;;;;;;4996169;28;20196;-88
2023/10/25 11:22:38;;;;;;;2.15;1.40;;;;;;;;;;4996049;28;20203;-87
2023/10/25 11:25:10;;;;;;;2.08;1.65;;;;;;;;;;4995924;28;20203;-86
2023/10/25 11:27:39;;;;;;;1.92;1.55;;;;;;;;;;4995262;28;20564;-87
2023/10/25 11:30:08;;;;;;;2.15;1.60;;;;;;;;;;4995604;28;20242;-89
2023/10/25 11:32:36;;;;;;;3.92;2.40;;;;;;;;;;4995415;28;20200;-86
2023/10/25 11:35:07;;;;;;;1.48;1.20;;;;;;;;;;4995574;28;20200;-85
2023/10/25 11:37:45;;;;;;;3.10;1.50;;;;;;;;;;4995446;28;20243;-87
2023/10/25 11:40:13;;;;;;;2.13;1.60;;;;;;;;;;4995619;28;20295;-86
2023/10/25 11:42:42;;;;;;;1.23;1.13;;;;;;;;;;5013613;22;20249;-89
2023/10/25 11:45:10;;;;;;;2.10;1.25;;;;;;;;;;5034193;28;20273;-91
2023/10/25 11:47:40;;;;;;;2.72;1.60;;;;;;;;;;5035902;28;20281;-92
2023/10/25 11:50:10;;;;;;;2.70;1.42;;;;;;;;;;5035006;28;20285;-90
2023/10/25 11:52:38;;;;;;;1.63;1.42;;;;;;;;;;5035136;28;20224;-90
2023/10/25 11:55:08;;;;;;;1.50;1.40;;;;;;;;;;5035871;28;20281;-91
2023/10/25 11:57:35;;;;;;;1.67;1.50;;;;;;;;;;5034888;28;20198;-90
2023/10/25 12:00:05;;;;;;;2.28;1.50;;;;;;;;;;5034499;28;20213;-91
2023/10/25 12:02:32;;;;;;;1.65;1.38;;;;;;;;;;5034875;28;20234;-91
2023/10/25 12:05:01;;;;;;;1.85;1.40;;;;;;;;;;5032650;28;20285;-91
2023/10/25 12:07:30;;;;;;;1.23;1.17;;;;;;;;;;5014315;28;20187;-91
2023/10/25 12:09:58;;;;;;;2.05;1.20;;;;;;;;;;5014446;28;20223;-90
2023/10/25 12:12:27;;;;;;;1.10;1.10;;;;;;;;;;5014059;28;20227;-88
2023/10/25 12:14:55;;;;;;;3.17;2.20;;;;;;;;;;5014746;28;20310;-93
2023/10/25 12:17:22;;;;;;;3.10;1.70;;;;;;;;;;5019299;28;20241;-91
2023/10/25 12:19:51;;;;;;;1.60;1.50;;;;;;;;;;5014669;28;20235;-89
2023/10/25 12:22:20;;;;;;;1.58;1.30;;;;;;;;;;5018390;28;20286;-89
2023/10/25 12:24:48;;;;;;;2.95;2.10;;;;;;;;;;5014225;28;20604;-92
2023/10/25 12:27:16;;;;;;;3.10;1.75;;;;;;;;;;5013922;28;20293;-90
2023/10/25 12:29:45;;;;;;;2.13;1.58;;;;;;;;;;5017452;28;20213;-91
2023/10/25 12:32:13;;;;;;;1.60;1.50;;;;;;;;;;5013853;28;20199;-90
2023/10/25 12:34:41;;;;;;;2.22;1.63;;;;;;;;;;5014107;28;20666;-90
2023/10/25 12:37:08;;;;;;;3.00;2.10;;;;;;;;;;5026040;28;20635;-90
2023/10/25 12:39:36;;;;;;;3.63;1.77;;;;;;;;;;5034028;28;20226;-89
2023/10/25 12:42:04;;;;;;;3.72;1.80;;;;;;;;;;5036202;28;20656;-92
2023/10/25 12:44:32;;;;;;;1.45;1.30;;;;;;;;;;5035408;28;20229;-90
2023/10/25 12:47:03;;;;;;;2.28;1.90;;;;;;;;;;5033768;28;20218;-90
2023/10/25 12:49:30;;;;;;;2.10;1.58;;;;;;;;;;5040533;28;20591;-90
2023/10/25 12:51:58;;;;;;;1.70;1.60;;;;;;;;;;5039077;28;20628;-90
2023/10/25 12:54:25;;;;;;;2.38;1.92;;;;;;;;;;5038114;28;20218;-89
2023/10/25 12:56:53;;;;;;;1.30;1.20;;;;;;;;;;5038047;28;20619;-90
2023/10/25 12:59:21;;;;;;;2.40;2.15;;;;;;;;;;5037470;28;20767;-89
2023/10/25 13:01:50;;;;;;;1.90;1.77;;;;;;;;;;5038041;28;20198;-90
2023/10/25 13:04:19;;;;;;;2.63;1.65;;;;;;;;;;5038595;28;20222;-90
2023/10/25 13:06:47;;;;;;;1.85;1.70;;;;;;;;;;5032013;28;20223;-90
2023/10/25 13:09:16;;;;;;;1.70;1.60;;;;;;;;;;5036191;28;20293;-90
2023/10/25 13:11:44;;;;;;;2.05;1.50;;;;;;;;;;5046637;28;20194;-90
2023/10/25 13:14:12;;;;;;;2.38;1.60;;;;;;;;;;5049069;28;20309;-92
2023/10/25 13:16:39;;;;;;;2.25;1.80;;;;;;;;;;5038190;28;20201;-92
2023/10/25 13:19:07;;;;;;;2.00;1.60;;;;;;;;;;5037342;28;20757;-89
2023/10/25 13:21:39;;;;;;;1.55;1.45;;;;;;;;;;5037272;28;20289;-91
2023/10/25 13:24:09;;;;;;;2.13;1.83;;;;;;;;;;5038242;28;20253;-91
2023/10/25 13:26:37;;;;;;;2.00;1.80;;;;;;;;;;5039060;28;20202;-91
2023/10/25 13:29:05;;;;;;;1.55;1.45;;;;;;;;;;5038369;28;20202;-89
2023/10/25 13:31:33;;;;;;;1.80;1.70;;;;;;;;;;5037913;28;20285;-90
2023/10/25 13:34:00;;;;;;;2.08;1.88;;;;;;;;;;5037676;28;20277;-90
2023/10/25 13:36:28;;;;;;;4.35;2.08;;;;;;;;;;5031869;28;20290;-91
2023/10/25 13:38:57;;;;;;;1.75;1.65;;;;;;;;;;5051185;28;20313;-94
2023/10/25 13:41:24;;;;;;;3.58;1.98;;;;;;;;;;4998832;28;20199;-91
2023/10/25 13:47:33;;;;;;;1.73;1.63;;;;;;;;;;5000168;28;20223;-88
2023/10/25 13:50:01;;;;;;;1.63;1.48;;;;;;;;;;4997414;28;20209;-88
2023/10/25 13:52:28;;;;;;;2.55;1.63;;;;;;;;;;5003297;28;20200;-89
2023/10/25 13:54:58;;;;;;;2.40;2.25;;;;;;;;;;4998071;28;20215;-91
2023/10/25 13:57:26;;;;;;;2.33;2.08;;;;;;;;;;4997602;28;20205;-89
2023/10/25 13:59:54;;;;;;;2.17;1.98;;;;;;;;;;4994778;28;20603;-88
2023/10/25 14:02:21;;;;;;;2.13;1.83;;;;;;;;;;4996630;28;20207;-90
2023/10/25 14:04:49;;;;;;;2.53;2.30;;;;;;;;;;4997129;28;20242;-89
2023/10/25 14:07:16;;;;;;;3.30;2.83;;;;;;;;;;4997708;28;20225;-87
2023/10/25 14:09:44;;;;;;;2.85;2.55;;;;;;;;;;5000495;28;20202;-88
2023/10/25 14:12:13;;;;;;;3.92;2.97;;;;;;;;;;4996330;28;20857;-87
2023/10/25 14:14:40;;;;;;;4.78;2.92;;;;;;;;;;4996713;28;20231;-90
2023/10/25 14:17:08;;;;;;;3.67;2.55;;;;;;;;;;4995878;28;20206;-87
2023/10/25 14:19:35;;;;;;;2.88;2.58;;;;;;;;;;4997712;28;20720;-86
2023/10/25 14:22:03;;;;;;;2.63;2.30;;;;;;;;;;4997356;28;20191;-89
2023/10/25 14:24:30;;;;;;;3.53;2.35;;;;;;;;;;4997958;28;20219;-88
2023/10/25 14:26:58;;;;;;;3.13;2.35;;;;;;;;;;4998877;28;20206;-89
2023/10/25 14:29:27;;;;;;;2.30;2.10;;;;;;;;;;4997519;28;20200;-90
2023/10/25 14:31:55;;;;;;;3.13;2.17;;;;;;;;;;4998638;28;20206;-87
2023/10/25 14:34:22;;;;;;;2.55;2.25;;;;;;;;;;4999406;28;20219;-88
2023/10/25 14:36:50;;;;;;;2.35;2.08;;;;;;;;;;4998469;28;20313;-87
2023/10/25 14:39:17;;;;;;;4.10;2.25;;;;;;;;;;4997500;28;20238;-89
2023/10/25 14:41:45;;;;;;;2.22;2.03;;;;;;;;;;4997456;28;20198;-88
2023/10/25 14:44:12;;;;;;;2.10;1.83;;;;;;;;;;4997675;28;20881;-88
2023/10/25 14:46:44;;;;;;;2.72;2.53;;;;;;;;;;4997466;28;20289;-87
2023/10/25 14:49:11;;;;;;;3.00;2.60;;;;;;;;;;4995104;28;20207;-88
2023/10/25 14:51:39;;;;;;;3.17;2.20;;;;;;;;;;4995739;28;20203;-87
2023/10/25 14:54:07;;;;;;;2.47;2.28;;;;;;;;;;5002958;28;20219;-87
2023/10/25 14:56:35;;;;;;;2.58;2.38;;;;;;;;;;5001885;28;20213;-88
2023/10/25 14:59:02;;;;;;;3.92;3.53;;;;;;;;;;4995770;28;20660;-89
2023/10/25 15:01:30;;;;;;;2.25;2.03;;;;;;;;;;4996426;28;20283;-87